sensor_id;sensor_type;location;lat;lon;timestamp;temperature;humidity
19232;DHT22;9750;48.730;10.294;2022-10-12T00:00:01;13.10;99.90
19232;DHT22;9750;48.730;10.294;2022-10-12T00:02:28;13.00;99.90
19232;DHT22;9750;48.730;10.294;2022-10-12T00:04:55;13.00;99.90
19232;DHT22;9750;48.730;10.294;2022-10-12T00:07:23;13.00;99.90
19232;DHT22;9750;48.730;10.294;2022-10-12T00:09:50;13.00;99.90
19232;DHT22;9750;48.730;10.294;2022-10-12T00:12:17;13.00;99.90
19232;DHT22;9750;48.730;10.294;2022-10-12T00:14:46;13.00;99.90
19232;DHT22;9750;48.730;10.294;2022-10-12T00:17:13;13.00;99.90
19232;DHT22;9750;48.730;10.294;2022-10-12T00:19:40;13.00;99.90
19232;DHT22;9750;48.730;10.294;2022-10-12T00:22:08;13.00;99.90
19232;DHT22;9750;48.730;10.294;2022-10-12T00:24:35;13.00;99.90
19232;DHT22;9750;48.730;10.294;2022-10-12T00:27:02;12.90;99.90
19232;DHT22;9750;48.730;10.294;2022-10-12T00:29:30;12.90;99.90
19232;DHT22;9750;48.730;10.294;2022-10-12T00:31:58;12.90;99.90
19232;DHT22;9750;48.730;10.294;2022-10-12T00:34:26;12.90;99.90
19232;DHT22;9750;48.730;10.294;2022-10-12T00:36:55;12.90;99.90
19232;DHT22;9750;48.730;10.294;2022-10-12T00:39:22;12.90;99.90
19232;DHT22;9750;48.730;10.294;2022-10-12T00:41:49;12.90;99.90
19232;DHT22;9750;48.730;10.294;2022-10-12T00:44:36;12.90;99.90
19232;DHT22;9750;48.730;10.294;2022-10-12T00:47:09;12.90;99.90
19232;DHT22;9750;48.730;10.294;2022-10-12T00:49:40;12.80;99.90
19232;DHT22;9750;48.730;10.294;2022-10-12T00:52:11;12.80;99.90
19232;DHT22;9750;48.730;10.294;2022-10-12T00:54:43;12.80;99.90
19232;DHT22;9750;48.730;10.294;2022-10-12T00:57:14;12.80;99.90
19232;DHT22;9750;48.730;10.294;2022-10-12T00:59:45;12.80;99.90
19232;DHT22;9750;48.730;10.294;2022-10-12T01:02:16;12.80;99.90
19232;DHT22;9750;48.730;10.294;2022-10-12T01:04:44;12.80;99.90
19232;DHT22;9750;48.730;10.294;2022-10-12T01:07:12;12.70;99.90
19232;DHT22;9750;48.730;10.294;2022-10-12T01:09:40;12.70;99.90
19232;DHT22;9750;48.730;10.294;2022-10-12T01:12:08;12.70;99.90
19232;DHT22;9750;48.730;10.294;2022-10-12T01:14:36;12.70;99.90
19232;DHT22;9750;48.730;10.294;2022-10-12T01:17:12;12.60;99.90
19232;DHT22;9750;48.730;10.294;2022-10-12T01:22:52;12.60;99.90
19232;DHT22;9750;48.730;10.294;2022-10-12T01:25:29;12.60;99.90
19232;DHT22;9750;48.730;10.294;2022-10-12T01:28:05;12.60;99.90
19232;DHT22;9750;48.730;10.294;2022-10-12T01:30:42;12.60;99.90
19232;DHT22;9750;48.730;10.294;2022-10-12T01:33:21;12.60;99.90
19232;DHT22;9750;48.730;10.294;2022-10-12T01:35:57;12.60;99.90
19232;DHT22;9750;48.730;10.294;2022-10-12T01:38:47;12.60;99.90
19232;DHT22;9750;48.730;10.294;2022-10-12T01:41:22;12.60;99.90
19232;DHT22;9750;48.730;10.294;2022-10-12T01:43:51;12.60;99.90
19232;DHT22;9750;48.730;10.294;2022-10-12T01:46:45;12.60;99.90
19232;DHT22;9750;48.730;10.294;2022-10-12T01:49:15;12.60;99.90
19232;DHT22;9750;48.730;10.294;2022-10-12T01:51:52;12.60;99.90
19232;DHT22;9750;48.730;10.294;2022-10-12T01:54:28;12.50;99.90
19232;DHT22;9750;48.730;10.294;2022-10-12T01:57:05;12.50;99.90
19232;DHT22;9750;48.730;10.294;2022-10-12T02:00:00;12.50;99.90
19232;DHT22;9750;48.730;10.294;2022-10-12T02:02:35;12.50;99.90
19232;DHT22;9750;48.730;10.294;2022-10-12T02:05:10;12.40;99.90
19232;DHT22;9750;48.730;10.294;2022-10-12T02:07:42;12.40;99.90
19232;DHT22;9750;48.730;10.294;2022-10-12T02:10:15;12.30;99.90
19232;DHT22;9750;48.730;10.294;2022-10-12T02:12:44;12.30;99.90
19232;DHT22;9750;48.730;10.294;2022-10-12T02:15:13;12.30;99.90
19232;DHT22;9750;48.730;10.294;2022-10-12T02:17:45;12.30;99.90
19232;DHT22;9750;48.730;10.294;2022-10-12T02:20:16;12.20;99.90
19232;DHT22;9750;48.730;10.294;2022-10-12T02:22:46;12.20;99.90
19232;DHT22;9750;48.730;10.294;2022-10-12T02:25:17;12.20;99.90
19232;DHT22;9750;48.730;10.294;2022-10-12T02:27:51;12.20;99.90
19232;DHT22;9750;48.730;10.294;2022-10-12T02:30:20;12.10;99.90
19232;DHT22;9750;48.730;10.294;2022-10-12T02:32:53;12.00;99.90
19232;DHT22;9750;48.730;10.294;2022-10-12T02:35:24;12.00;99.90
19232;DHT22;9750;48.730;10.294;2022-10-12T02:37:55;12.00;99.90
19232;DHT22;9750;48.730;10.294;2022-10-12T02:40:31;12.00;99.90
19232;DHT22;9750;48.730;10.294;2022-10-12T02:43:03;12.00;99.90
19232;DHT22;9750;48.730;10.294;2022-10-12T02:45:33;12.00;99.90
19232;DHT22;9750;48.730;10.294;2022-10-12T02:48:03;11.90;99.90
19232;DHT22;9750;48.730;10.294;2022-10-12T02:50:31;11.90;99.90
19232;DHT22;9750;48.730;10.294;2022-10-12T02:52:59;11.90;99.90
19232;DHT22;9750;48.730;10.294;2022-10-12T02:55:26;11.90;99.90
19232;DHT22;9750;48.730;10.294;2022-10-12T02:57:55;11.90;99.90
19232;DHT22;9750;48.730;10.294;2022-10-12T03:00:22;11.80;99.90
19232;DHT22;9750;48.730;10.294;2022-10-12T03:02:50;11.90;99.90
19232;DHT22;9750;48.730;10.294;2022-10-12T03:05:18;11.90;99.90
19232;DHT22;9750;48.730;10.294;2022-10-12T03:07:46;11.90;99.90
19232;DHT22;9750;48.730;10.294;2022-10-12T03:10:13;11.90;99.90
19232;DHT22;9750;48.730;10.294;2022-10-12T03:12:40;11.90;99.90
19232;DHT22;9750;48.730;10.294;2022-10-12T03:15:08;11.90;99.90
19232;DHT22;9750;48.730;10.294;2022-10-12T03:17:35;11.90;99.90
19232;DHT22;9750;48.730;10.294;2022-10-12T03:26:32;11.90;99.90
19232;DHT22;9750;48.730;10.294;2022-10-12T03:28:59;11.80;99.90
19232;DHT22;9750;48.730;10.294;2022-10-12T03:31:27;11.80;99.90
19232;DHT22;9750;48.730;10.294;2022-10-12T03:33:54;11.80;99.90
19232;DHT22;9750;48.730;10.294;2022-10-12T03:36:21;11.80;99.90
19232;DHT22;9750;48.730;10.294;2022-10-12T03:38:48;11.90;99.90
19232;DHT22;9750;48.730;10.294;2022-10-12T03:41:16;11.90;99.90
19232;DHT22;9750;48.730;10.294;2022-10-12T03:43:44;11.90;99.90
19232;DHT22;9750;48.730;10.294;2022-10-12T03:46:12;11.90;99.90
19232;DHT22;9750;48.730;10.294;2022-10-12T03:48:39;11.90;99.90
19232;DHT22;9750;48.730;10.294;2022-10-12T03:51:06;11.90;99.90
19232;DHT22;9750;48.730;10.294;2022-10-12T03:53:34;12.00;99.90
19232;DHT22;9750;48.730;10.294;2022-10-12T03:56:01;12.00;99.90
19232;DHT22;9750;48.730;10.294;2022-10-12T03:58:28;12.00;99.90
19232;DHT22;9750;48.730;10.294;2022-10-12T04:00:57;12.00;99.90
19232;DHT22;9750;48.730;10.294;2022-10-12T04:03:25;12.00;99.90
19232;DHT22;9750;48.730;10.294;2022-10-12T04:05:52;12.00;99.90
19232;DHT22;9750;48.730;10.294;2022-10-12T04:08:20;12.00;99.90
19232;DHT22;9750;48.730;10.294;2022-10-12T04:10:48;12.00;99.90
19232;DHT22;9750;48.730;10.294;2022-10-12T04:13:16;12.00;99.90
19232;DHT22;9750;48.730;10.294;2022-10-12T04:15:44;12.00;99.90
19232;DHT22;9750;48.730;10.294;2022-10-12T04:18:13;11.90;99.90
19232;DHT22;9750;48.730;10.294;2022-10-12T04:20:40;11.90;99.90
19232;DHT22;9750;48.730;10.294;2022-10-12T04:23:07;11.90;99.90
19232;DHT22;9750;48.730;10.294;2022-10-12T04:25:35;11.90;99.90
19232;DHT22;9750;48.730;10.294;2022-10-12T04:28:02;11.90;99.90
19232;DHT22;9750;48.730;10.294;2022-10-12T04:33:53;11.90;99.90
19232;DHT22;9750;48.730;10.294;2022-10-12T04:36:22;11.90;99.90
19232;DHT22;9750;48.730;10.294;2022-10-12T04:38:49;11.90;99.90
19232;DHT22;9750;48.730;10.294;2022-10-12T04:41:16;11.90;99.90
19232;DHT22;9750;48.730;10.294;2022-10-12T04:43:44;11.90;99.90
19232;DHT22;9750;48.730;10.294;2022-10-12T04:46:11;11.90;99.90
19232;DHT22;9750;48.730;10.294;2022-10-12T04:48:38;11.90;99.90
19232;DHT22;9750;48.730;10.294;2022-10-12T04:51:08;11.90;99.90
19232;DHT22;9750;48.730;10.294;2022-10-12T04:53:35;11.90;99.90
19232;DHT22;9750;48.730;10.294;2022-10-12T04:56:03;11.90;99.90
19232;DHT22;9750;48.730;10.294;2022-10-12T04:58:31;11.90;99.90
19232;DHT22;9750;48.730;10.294;2022-10-12T05:00:59;11.80;99.90
19232;DHT22;9750;48.730;10.294;2022-10-12T05:03:26;11.80;99.90
19232;DHT22;9750;48.730;10.294;2022-10-12T05:05:53;11.80;99.90
19232;DHT22;9750;48.730;10.294;2022-10-12T05:08:22;11.80;99.90
19232;DHT22;9750;48.730;10.294;2022-10-12T05:10:50;11.80;99.90
19232;DHT22;9750;48.730;10.294;2022-10-12T05:13:17;11.80;99.90
19232;DHT22;9750;48.730;10.294;2022-10-12T05:15:45;11.80;99.90
19232;DHT22;9750;48.730;10.294;2022-10-12T05:18:12;11.70;99.90
19232;DHT22;9750;48.730;10.294;2022-10-12T05:20:39;11.70;99.90
19232;DHT22;9750;48.730;10.294;2022-10-12T05:23:06;11.70;99.90
19232;DHT22;9750;48.730;10.294;2022-10-12T05:25:35;11.70;99.90
19232;DHT22;9750;48.730;10.294;2022-10-12T05:28:03;11.80;99.90
19232;DHT22;9750;48.730;10.294;2022-10-12T05:30:31;11.70;99.90
19232;DHT22;9750;48.730;10.294;2022-10-12T05:32:59;11.80;99.90
19232;DHT22;9750;48.730;10.294;2022-10-12T05:35:26;11.80;99.90
19232;DHT22;9750;48.730;10.294;2022-10-12T05:37:53;11.80;99.90
19232;DHT22;9750;48.730;10.294;2022-10-12T05:43:39;11.70;99.90
19232;DHT22;9750;48.730;10.294;2022-10-12T05:46:06;11.70;99.90
19232;DHT22;9750;48.730;10.294;2022-10-12T05:48:33;11.60;99.90
19232;DHT22;9750;48.730;10.294;2022-10-12T05:51:00;11.70;99.90
19232;DHT22;9750;48.730;10.294;2022-10-12T05:53:29;11.60;99.90
19232;DHT22;9750;48.730;10.294;2022-10-12T05:55:57;11.70;99.90
19232;DHT22;9750;48.730;10.294;2022-10-12T05:58:25;11.70;99.90
19232;DHT22;9750;48.730;10.294;2022-10-12T06:01:02;11.70;99.90
19232;DHT22;9750;48.730;10.294;2022-10-12T06:03:29;11.70;99.90
19232;DHT22;9750;48.730;10.294;2022-10-12T06:05:57;11.80;99.90
19232;DHT22;9750;48.730;10.294;2022-10-12T06:11:30;11.80;99.90
19232;DHT22;9750;48.730;10.294;2022-10-12T06:13:57;11.90;99.90
19232;DHT22;9750;48.730;10.294;2022-10-12T06:16:26;11.90;99.90
19232;DHT22;9750;48.730;10.294;2022-10-12T06:18:53;11.90;99.90
19232;DHT22;9750;48.730;10.294;2022-10-12T06:21:21;11.90;99.90
19232;DHT22;9750;48.730;10.294;2022-10-12T06:23:48;11.90;99.90
19232;DHT22;9750;48.730;10.294;2022-10-12T06:26:15;11.90;99.90
19232;DHT22;9750;48.730;10.294;2022-10-12T06:28:43;11.90;99.90
19232;DHT22;9750;48.730;10.294;2022-10-12T06:31:10;11.90;99.90
19232;DHT22;9750;48.730;10.294;2022-10-12T06:33:40;11.90;99.90
19232;DHT22;9750;48.730;10.294;2022-10-12T06:36:07;11.90;99.90
19232;DHT22;9750;48.730;10.294;2022-10-12T06:38:34;11.90;99.90
19232;DHT22;9750;48.730;10.294;2022-10-12T06:41:02;11.90;99.90
19232;DHT22;9750;48.730;10.294;2022-10-12T06:43:29;12.00;99.90
19232;DHT22;9750;48.730;10.294;2022-10-12T06:45:58;12.00;99.90
19232;DHT22;9750;48.730;10.294;2022-10-12T06:48:26;12.00;99.90
19232;DHT22;9750;48.730;10.294;2022-10-12T06:50:55;12.00;99.90
19232;DHT22;9750;48.730;10.294;2022-10-12T06:53:23;12.00;99.90
19232;DHT22;9750;48.730;10.294;2022-10-12T06:55:53;12.00;99.90
19232;DHT22;9750;48.730;10.294;2022-10-12T06:58:20;12.00;99.90
19232;DHT22;9750;48.730;10.294;2022-10-12T07:00:47;12.10;99.90
19232;DHT22;9750;48.730;10.294;2022-10-12T07:03:15;12.10;99.90
19232;DHT22;9750;48.730;10.294;2022-10-12T07:05:42;12.10;99.90
19232;DHT22;9750;48.730;10.294;2022-10-12T07:08:11;12.20;99.90
19232;DHT22;9750;48.730;10.294;2022-10-12T07:10:38;12.20;99.90
19232;DHT22;9750;48.730;10.294;2022-10-12T07:13:06;12.30;99.90
19232;DHT22;9750;48.730;10.294;2022-10-12T07:15:33;12.30;99.90
19232;DHT22;9750;48.730;10.294;2022-10-12T07:18:00;12.30;99.90
19232;DHT22;9750;48.730;10.294;2022-10-12T07:20:27;12.40;99.90
19232;DHT22;9750;48.730;10.294;2022-10-12T07:22:55;12.50;99.90
19232;DHT22;9750;48.730;10.294;2022-10-12T07:25:23;12.50;99.90
19232;DHT22;9750;48.730;10.294;2022-10-12T07:27:51;12.60;99.90
19232;DHT22;9750;48.730;10.294;2022-10-12T07:30:18;12.60;99.90
19232;DHT22;9750;48.730;10.294;2022-10-12T07:32:45;12.70;99.90
19232;DHT22;9750;48.730;10.294;2022-10-12T07:35:13;12.80;99.90
19232;DHT22;9750;48.730;10.294;2022-10-12T07:37:40;12.80;99.90
19232;DHT22;9750;48.730;10.294;2022-10-12T07:40:08;12.90;99.90
19232;DHT22;9750;48.730;10.294;2022-10-12T07:42:37;12.90;99.90
19232;DHT22;9750;48.730;10.294;2022-10-12T07:45:05;13.00;99.90
19232;DHT22;9750;48.730;10.294;2022-10-12T07:47:32;13.00;99.90
19232;DHT22;9750;48.730;10.294;2022-10-12T07:49:59;13.10;99.90
19232;DHT22;9750;48.730;10.294;2022-10-12T07:52:27;13.10;99.90
19232;DHT22;9750;48.730;10.294;2022-10-12T07:54:57;13.10;99.90
19232;DHT22;9750;48.730;10.294;2022-10-12T07:57:24;13.20;99.90
19232;DHT22;9750;48.730;10.294;2022-10-12T07:59:53;13.30;99.90
19232;DHT22;9750;48.730;10.294;2022-10-12T08:02:20;13.30;99.90
19232;DHT22;9750;48.730;10.294;2022-10-12T08:04:47;13.40;99.90
19232;DHT22;9750;48.730;10.294;2022-10-12T08:07:14;13.50;99.90
19232;DHT22;9750;48.730;10.294;2022-10-12T08:09:56;13.50;99.90
19232;DHT22;9750;48.730;10.294;2022-10-12T08:12:23;13.50;99.90
19232;DHT22;9750;48.730;10.294;2022-10-12T08:14:52;13.50;99.90
19232;DHT22;9750;48.730;10.294;2022-10-12T08:17:19;13.50;99.90
19232;DHT22;9750;48.730;10.294;2022-10-12T08:19:47;13.50;99.90
19232;DHT22;9750;48.730;10.294;2022-10-12T08:22:14;13.60;99.90
19232;DHT22;9750;48.730;10.294;2022-10-12T08:24:41;13.70;99.90
19232;DHT22;9750;48.730;10.294;2022-10-12T08:27:09;13.70;99.90
19232;DHT22;9750;48.730;10.294;2022-10-12T08:29:52;13.90;99.90
19232;DHT22;9750;48.730;10.294;2022-10-12T08:32:19;13.90;99.90
19232;DHT22;9750;48.730;10.294;2022-10-12T08:34:47;13.90;99.90
19232;DHT22;9750;48.730;10.294;2022-10-12T08:37:14;14.00;99.90
19232;DHT22;9750;48.730;10.294;2022-10-12T08:39:41;14.00;99.90
19232;DHT22;9750;48.730;10.294;2022-10-12T08:42:17;14.10;99.90
19232;DHT22;9750;48.730;10.294;2022-10-12T08:45:05;14.10;99.90
19232;DHT22;9750;48.730;10.294;2022-10-12T08:47:38;14.10;99.90
19232;DHT22;9750;48.730;10.294;2022-10-12T08:50:13;14.10;99.90
19232;DHT22;9750;48.730;10.294;2022-10-12T08:52:48;14.10;99.90
19232;DHT22;9750;48.730;10.294;2022-10-12T08:55:24;14.10;99.90
19232;DHT22;9750;48.730;10.294;2022-10-12T08:57:55;14.10;99.90
19232;DHT22;9750;48.730;10.294;2022-10-12T09:00:24;14.20;99.90
19232;DHT22;9750;48.730;10.294;2022-10-12T09:02:58;14.30;99.90
19232;DHT22;9750;48.730;10.294;2022-10-12T09:05:33;14.30;99.90
19232;DHT22;9750;48.730;10.294;2022-10-12T09:08:05;14.40;99.90
19232;DHT22;9750;48.730;10.294;2022-10-12T09:10:45;14.50;99.90
19232;DHT22;9750;48.730;10.294;2022-10-12T09:13:29;14.60;99.90
19232;DHT22;9750;48.730;10.294;2022-10-12T09:16:02;14.60;99.90
19232;DHT22;9750;48.730;10.294;2022-10-12T09:18:36;14.60;99.90
19232;DHT22;9750;48.730;10.294;2022-10-12T09:21:04;14.70;99.90
19232;DHT22;9750;48.730;10.294;2022-10-12T09:23:36;14.70;99.90
19232;DHT22;9750;48.730;10.294;2022-10-12T09:26:13;14.70;99.90
19232;DHT22;9750;48.730;10.294;2022-10-12T09:28:42;14.70;99.90
19232;DHT22;9750;48.730;10.294;2022-10-12T09:31:26;14.80;99.90
19232;DHT22;9750;48.730;10.294;2022-10-12T09:33:57;14.80;99.90
19232;DHT22;9750;48.730;10.294;2022-10-12T09:36:27;14.80;99.90
19232;DHT22;9750;48.730;10.294;2022-10-12T09:38:56;14.80;99.90
19232;DHT22;9750;48.730;10.294;2022-10-12T09:41:30;14.80;99.90
19232;DHT22;9750;48.730;10.294;2022-10-12T09:44:00;14.90;99.90
19232;DHT22;9750;48.730;10.294;2022-10-12T09:46:38;14.90;99.90
19232;DHT22;9750;48.730;10.294;2022-10-12T09:49:06;14.90;99.90
19232;DHT22;9750;48.730;10.294;2022-10-12T09:51:34;15.00;99.90
19232;DHT22;9750;48.730;10.294;2022-10-12T09:54:03;15.00;99.90
19232;DHT22;9750;48.730;10.294;2022-10-12T09:56:37;15.10;99.90
19232;DHT22;9750;48.730;10.294;2022-10-12T09:59:15;15.10;99.90
19232;DHT22;9750;48.730;10.294;2022-10-12T10:01:56;15.10;99.90
19232;DHT22;9750;48.730;10.294;2022-10-12T10:04:25;15.10;99.90
19232;DHT22;9750;48.730;10.294;2022-10-12T10:06:54;15.10;99.90
19232;DHT22;9750;48.730;10.294;2022-10-12T10:09:31;15.10;99.90
19232;DHT22;9750;48.730;10.294;2022-10-12T10:12:12;15.20;99.90
19232;DHT22;9750;48.730;10.294;2022-10-12T10:14:42;15.20;99.90
19232;DHT22;9750;48.730;10.294;2022-10-12T10:17:15;15.20;99.90
19232;DHT22;9750;48.730;10.294;2022-10-12T10:19:48;15.20;99.90
19232;DHT22;9750;48.730;10.294;2022-10-12T10:22:16;15.20;99.90
19232;DHT22;9750;48.730;10.294;2022-10-12T10:24:49;15.20;99.90
19232;DHT22;9750;48.730;10.294;2022-10-12T10:27:33;15.20;99.90
19232;DHT22;9750;48.730;10.294;2022-10-12T10:30:20;15.20;99.90
19232;DHT22;9750;48.730;10.294;2022-10-12T10:33:07;15.20;99.90
19232;DHT22;9750;48.730;10.294;2022-10-12T10:35:35;15.30;99.90
19232;DHT22;9750;48.730;10.294;2022-10-12T10:38:02;15.30;99.90
19232;DHT22;9750;48.730;10.294;2022-10-12T10:40:32;15.20;99.90
19232;DHT22;9750;48.730;10.294;2022-10-12T10:43:02;15.20;99.90
19232;DHT22;9750;48.730;10.294;2022-10-12T10:45:33;15.30;99.90
19232;DHT22;9750;48.730;10.294;2022-10-12T10:48:08;15.30;99.90
19232;DHT22;9750;48.730;10.294;2022-10-12T10:50:38;15.30;99.90
19232;DHT22;9750;48.730;10.294;2022-10-12T10:53:13;15.40;99.90
19232;DHT22;9750;48.730;10.294;2022-10-12T10:55:45;15.40;99.90
19232;DHT22;9750;48.730;10.294;2022-10-12T10:58:23;15.50;99.90
19232;DHT22;9750;48.730;10.294;2022-10-12T11:00:57;15.40;99.90
19232;DHT22;9750;48.730;10.294;2022-10-12T11:03:32;15.50;99.90
19232;DHT22;9750;48.730;10.294;2022-10-12T11:06:08;15.50;99.90
19232;DHT22;9750;48.730;10.294;2022-10-12T11:08:41;15.50;99.90
19232;DHT22;9750;48.730;10.294;2022-10-12T11:11:12;15.60;99.90
19232;DHT22;9750;48.730;10.294;2022-10-12T11:13:43;15.60;99.90
19232;DHT22;9750;48.730;10.294;2022-10-12T11:16:26;15.60;99.90
19232;DHT22;9750;48.730;10.294;2022-10-12T11:18:57;15.70;99.90
19232;DHT22;9750;48.730;10.294;2022-10-12T11:21:29;15.70;99.90
19232;DHT22;9750;48.730;10.294;2022-10-12T11:24:02;15.80;99.90
19232;DHT22;9750;48.730;10.294;2022-10-12T11:26:36;15.80;99.90
19232;DHT22;9750;48.730;10.294;2022-10-12T11:29:06;15.90;99.90
19232;DHT22;9750;48.730;10.294;2022-10-12T11:31:36;15.90;99.90
19232;DHT22;9750;48.730;10.294;2022-10-12T11:34:11;15.90;99.90
19232;DHT22;9750;48.730;10.294;2022-10-12T11:36:44;16.00;99.90
19232;DHT22;9750;48.730;10.294;2022-10-12T11:39:16;16.00;99.90
19232;DHT22;9750;48.730;10.294;2022-10-12T11:41:47;16.00;99.90
19232;DHT22;9750;48.730;10.294;2022-10-12T11:44:17;16.00;99.90
19232;DHT22;9750;48.730;10.294;2022-10-12T11:46:48;16.10;99.90
19232;DHT22;9750;48.730;10.294;2022-10-12T11:49:25;16.10;99.90
19232;DHT22;9750;48.730;10.294;2022-10-12T11:51:56;16.20;99.90
19232;DHT22;9750;48.730;10.294;2022-10-12T11:54:27;16.20;99.90
19232;DHT22;9750;48.730;10.294;2022-10-12T11:57:01;16.30;99.90
19232;DHT22;9750;48.730;10.294;2022-10-12T11:59:33;16.30;99.90
19232;DHT22;9750;48.730;10.294;2022-10-12T12:02:10;16.20;99.90
19232;DHT22;9750;48.730;10.294;2022-10-12T12:04:43;16.30;99.90
19232;DHT22;9750;48.730;10.294;2022-10-12T12:07:43;16.30;99.90
19232;DHT22;9750;48.730;10.294;2022-10-12T12:13:32;16.10;99.90
19232;DHT22;9750;48.730;10.294;2022-10-12T12:16:30;16.10;99.90
19232;DHT22;9750;48.730;10.294;2022-10-12T12:19:35;16.20;99.90
19232;DHT22;9750;48.730;10.294;2022-10-12T12:22:34;16.20;99.90
19232;DHT22;9750;48.730;10.294;2022-10-12T12:25:28;16.20;99.90
19232;DHT22;9750;48.730;10.294;2022-10-12T12:27:57;16.20;99.90
19232;DHT22;9750;48.730;10.294;2022-10-12T12:30:33;16.30;99.90
19232;DHT22;9750;48.730;10.294;2022-10-12T12:33:03;16.30;99.90
19232;DHT22;9750;48.730;10.294;2022-10-12T12:35:35;16.40;99.90
19232;DHT22;9750;48.730;10.294;2022-10-12T12:38:23;16.50;99.90
19232;DHT22;9750;48.730;10.294;2022-10-12T12:40:56;16.50;99.90
19232;DHT22;9750;48.730;10.294;2022-10-12T12:43:50;16.60;99.90
19232;DHT22;9750;48.730;10.294;2022-10-12T12:46:18;16.60;99.90
19232;DHT22;9750;48.730;10.294;2022-10-12T12:49:00;16.50;99.90
19232;DHT22;9750;48.730;10.294;2022-10-12T12:51:39;16.60;99.90
19232;DHT22;9750;48.730;10.294;2022-10-12T12:54:16;16.60;99.90
19232;DHT22;9750;48.730;10.294;2022-10-12T13:03:22;16.60;99.90
19232;DHT22;9750;48.730;10.294;2022-10-12T13:06:32;16.60;99.90
19232;DHT22;9750;48.730;10.294;2022-10-12T13:12:23;16.60;99.90
19232;DHT22;9750;48.730;10.294;2022-10-12T13:15:17;16.50;99.90
19232;DHT22;9750;48.730;10.294;2022-10-12T13:18:04;16.50;99.90
19232;DHT22;9750;48.730;10.294;2022-10-12T13:20:37;16.50;99.90
19232;DHT22;9750;48.730;10.294;2022-10-12T13:23:07;16.50;99.90
19232;DHT22;9750;48.730;10.294;2022-10-12T13:25:43;16.40;99.90
19232;DHT22;9750;48.730;10.294;2022-10-12T13:28:15;16.40;99.90
19232;DHT22;9750;48.730;10.294;2022-10-12T13:30:47;16.40;99.90
19232;DHT22;9750;48.730;10.294;2022-10-12T13:33:20;16.40;99.90
19232;DHT22;9750;48.730;10.294;2022-10-12T13:35:55;16.40;99.90
19232;DHT22;9750;48.730;10.294;2022-10-12T13:38:26;16.40;99.90
19232;DHT22;9750;48.730;10.294;2022-10-12T13:41:05;16.30;99.90
19232;DHT22;9750;48.730;10.294;2022-10-12T13:43:43;16.30;99.90
19232;DHT22;9750;48.730;10.294;2022-10-12T13:46:12;16.30;99.90
19232;DHT22;9750;48.730;10.294;2022-10-12T13:48:43;16.30;99.90
19232;DHT22;9750;48.730;10.294;2022-10-12T13:51:22;16.30;99.90
19232;DHT22;9750;48.730;10.294;2022-10-12T13:53:50;16.20;99.90
19232;DHT22;9750;48.730;10.294;2022-10-12T13:56:21;16.20;99.90
19232;DHT22;9750;48.730;10.294;2022-10-12T13:58:50;16.20;99.90
19232;DHT22;9750;48.730;10.294;2022-10-12T14:01:19;16.20;99.90
19232;DHT22;9750;48.730;10.294;2022-10-12T14:03:47;16.20;99.90
19232;DHT22;9750;48.730;10.294;2022-10-12T14:06:28;16.20;99.90
19232;DHT22;9750;48.730;10.294;2022-10-12T14:08:56;16.10;99.90
19232;DHT22;9750;48.730;10.294;2022-10-12T14:11:26;16.10;99.90
19232;DHT22;9750;48.730;10.294;2022-10-12T14:13:54;16.10;99.90
19232;DHT22;9750;48.730;10.294;2022-10-12T14:16:22;16.10;99.90
19232;DHT22;9750;48.730;10.294;2022-10-12T14:18:50;16.10;99.90
19232;DHT22;9750;48.730;10.294;2022-10-12T14:21:20;16.10;99.90
19232;DHT22;9750;48.730;10.294;2022-10-12T14:23:51;16.00;99.90
19232;DHT22;9750;48.730;10.294;2022-10-12T14:26:23;16.00;99.90
19232;DHT22;9750;48.730;10.294;2022-10-12T14:28:52;16.00;99.90
19232;DHT22;9750;48.730;10.294;2022-10-12T14:31:47;16.00;99.90
19232;DHT22;9750;48.730;10.294;2022-10-12T14:34:41;15.90;99.90
19232;DHT22;9750;48.730;10.294;2022-10-12T14:37:26;16.00;99.90
19232;DHT22;9750;48.730;10.294;2022-10-12T14:39:54;15.90;99.90
19232;DHT22;9750;48.730;10.294;2022-10-12T14:42:33;15.90;99.90
19232;DHT22;9750;48.730;10.294;2022-10-12T14:45:04;15.90;99.90
19232;DHT22;9750;48.730;10.294;2022-10-12T14:47:33;15.90;99.90
19232;DHT22;9750;48.730;10.294;2022-10-12T14:50:06;15.90;99.90
19232;DHT22;9750;48.730;10.294;2022-10-12T14:52:37;15.80;99.90
19232;DHT22;9750;48.730;10.294;2022-10-12T14:55:08;15.80;99.90
19232;DHT22;9750;48.730;10.294;2022-10-12T14:57:36;15.80;99.90
19232;DHT22;9750;48.730;10.294;2022-10-12T15:00:05;15.80;99.90
19232;DHT22;9750;48.730;10.294;2022-10-12T15:02:34;15.80;99.90
19232;DHT22;9750;48.730;10.294;2022-10-12T15:05:02;15.70;99.90
19232;DHT22;9750;48.730;10.294;2022-10-12T15:07:32;15.70;99.90
19232;DHT22;9750;48.730;10.294;2022-10-12T15:10:00;15.70;99.90
19232;DHT22;9750;48.730;10.294;2022-10-12T15:12:28;15.60;99.90
19232;DHT22;9750;48.730;10.294;2022-10-12T15:14:57;15.70;99.90
19232;DHT22;9750;48.730;10.294;2022-10-12T15:17:27;15.60;99.90
19232;DHT22;9750;48.730;10.294;2022-10-12T15:19:54;15.70;99.90
19232;DHT22;9750;48.730;10.294;2022-10-12T15:22:23;15.70;99.90
19232;DHT22;9750;48.730;10.294;2022-10-12T15:24:52;15.70;99.90
19232;DHT22;9750;48.730;10.294;2022-10-12T15:27:20;15.70;99.90
19232;DHT22;9750;48.730;10.294;2022-10-12T15:29:48;15.70;99.90
19232;DHT22;9750;48.730;10.294;2022-10-12T15:32:17;15.70;99.90
19232;DHT22;9750;48.730;10.294;2022-10-12T15:34:46;15.60;99.90
19232;DHT22;9750;48.730;10.294;2022-10-12T15:37:15;15.60;99.90
19232;DHT22;9750;48.730;10.294;2022-10-12T15:42:58;15.60;99.90
19232;DHT22;9750;48.730;10.294;2022-10-12T15:45:29;15.50;99.90
19232;DHT22;9750;48.730;10.294;2022-10-12T15:47:56;15.50;99.90
19232;DHT22;9750;48.730;10.294;2022-10-12T15:50:28;15.50;99.90
19232;DHT22;9750;48.730;10.294;2022-10-12T15:53:00;15.50;99.90
19232;DHT22;9750;48.730;10.294;2022-10-12T15:55:29;15.50;99.90
19232;DHT22;9750;48.730;10.294;2022-10-12T15:57:57;15.50;99.90
19232;DHT22;9750;48.730;10.294;2022-10-12T16:00:26;15.40;99.90
19232;DHT22;9750;48.730;10.294;2022-10-12T16:02:58;15.40;99.90
19232;DHT22;9750;48.730;10.294;2022-10-12T16:05:29;15.40;99.90
19232;DHT22;9750;48.730;10.294;2022-10-12T16:07:57;15.30;99.90
19232;DHT22;9750;48.730;10.294;2022-10-12T16:10:28;15.30;99.90
19232;DHT22;9750;48.730;10.294;2022-10-12T16:12:56;15.30;99.90
19232;DHT22;9750;48.730;10.294;2022-10-12T16:15:26;15.20;99.90
19232;DHT22;9750;48.730;10.294;2022-10-12T16:17:54;15.20;99.90
19232;DHT22;9750;48.730;10.294;2022-10-12T16:20:32;15.10;99.90
19232;DHT22;9750;48.730;10.294;2022-10-12T16:23:01;15.10;99.90
19232;DHT22;9750;48.730;10.294;2022-10-12T16:25:29;15.10;99.90
19232;DHT22;9750;48.730;10.294;2022-10-12T16:27:57;15.00;99.90
19232;DHT22;9750;48.730;10.294;2022-10-12T16:30:25;15.00;99.90